sensor_id;sensor_type;location;lat;lon;timestamp;P1;durP1;ratioP1;P2;durP2;ratioP2
3771;SDS011;1901;48.172;12.824;2023-07-29T00:00:46;3.43;;;2.40;;
3771;SDS011;1901;48.172;12.824;2023-07-29T00:03:14;2.50;;;2.03;;
3771;SDS011;1901;48.172;12.824;2023-07-29T00:05:41;7.73;;;2.43;;
3771;SDS011;1901;48.172;12.824;2023-07-29T00:08:08;2.27;;;2.07;;
3771;SDS011;1901;48.172;12.824;2023-07-29T00:10:35;4.10;;;2.60;;
3771;SDS011;1901;48.172;12.824;2023-07-29T00:13:03;2.90;;;2.07;;
3771;SDS011;1901;48.172;12.824;2023-07-29T00:15:30;3.20;;;2.10;;
3771;SDS011;1901;48.172;12.824;2023-07-29T00:17:58;5.70;;;2.97;;
3771;SDS011;1901;48.172;12.824;2023-07-29T00:20:26;3.23;;;2.93;;
3771;SDS011;1901;48.172;12.824;2023-07-29T00:22:53;3.50;;;2.50;;
3771;SDS011;1901;48.172;12.824;2023-07-29T00:25:20;4.00;;;2.70;;
3771;SDS011;1901;48.172;12.824;2023-07-29T00:27:47;3.83;;;2.97;;
3771;SDS011;1901;48.172;12.824;2023-07-29T00:30:14;3.70;;;2.50;;
3771;SDS011;1901;48.172;12.824;2023-07-29T00:32:41;3.97;;;2.80;;
3771;SDS011;1901;48.172;12.824;2023-07-29T00:35:10;5.20;;;2.60;;
3771;SDS011;1901;48.172;12.824;2023-07-29T00:37:37;14.57;;;3.17;;
3771;SDS011;1901;48.172;12.824;2023-07-29T00:40:06;6.80;;;3.13;;
3771;SDS011;1901;48.172;12.824;2023-07-29T00:42:37;3.70;;;2.30;;
3771;SDS011;1901;48.172;12.824;2023-07-29T00:45:05;4.13;;;2.40;;
3771;SDS011;1901;48.172;12.824;2023-07-29T00:47:32;4.03;;;2.70;;
3771;SDS011;1901;48.172;12.824;2023-07-29T00:50:00;3.03;;;2.43;;
3771;SDS011;1901;48.172;12.824;2023-07-29T00:52:28;4.20;;;2.50;;
3771;SDS011;1901;48.172;12.824;2023-07-29T00:54:55;5.00;;;2.50;;
3771;SDS011;1901;48.172;12.824;2023-07-29T00:57:22;4.73;;;3.17;;
3771;SDS011;1901;48.172;12.824;2023-07-29T00:59:50;3.00;;;2.30;;
3771;SDS011;1901;48.172;12.824;2023-07-29T01:02:17;3.93;;;2.87;;
3771;SDS011;1901;48.172;12.824;2023-07-29T01:04:44;4.47;;;2.30;;
3771;SDS011;1901;48.172;12.824;2023-07-29T01:07:13;3.03;;;2.73;;
3771;SDS011;1901;48.172;12.824;2023-07-29T01:09:43;5.10;;;3.03;;
3771;SDS011;1901;48.172;12.824;2023-07-29T01:12:16;4.70;;;2.77;;
3771;SDS011;1901;48.172;12.824;2023-07-29T01:14:46;4.77;;;2.93;;
3771;SDS011;1901;48.172;12.824;2023-07-29T01:17:15;3.40;;;2.83;;
3771;SDS011;1901;48.172;12.824;2023-07-29T01:19:48;6.83;;;2.33;;
3771;SDS011;1901;48.172;12.824;2023-07-29T01:22:21;3.97;;;3.33;;
3771;SDS011;1901;48.172;12.824;2023-07-29T01:24:49;3.80;;;2.47;;
3771;SDS011;1901;48.172;12.824;2023-07-29T01:27:16;4.67;;;2.83;;
3771;SDS011;1901;48.172;12.824;2023-07-29T01:29:44;2.90;;;2.30;;
3771;SDS011;1901;48.172;12.824;2023-07-29T01:32:11;3.13;;;2.30;;
3771;SDS011;1901;48.172;12.824;2023-07-29T01:34:41;2.83;;;2.27;;
3771;SDS011;1901;48.172;12.824;2023-07-29T01:37:12;3.30;;;2.83;;
3771;SDS011;1901;48.172;12.824;2023-07-29T01:39:41;5.20;;;3.10;;
3771;SDS011;1901;48.172;12.824;2023-07-29T01:42:12;3.27;;;2.47;;
3771;SDS011;1901;48.172;12.824;2023-07-29T01:44:39;4.10;;;2.73;;
3771;SDS011;1901;48.172;12.824;2023-07-29T01:47:07;5.33;;;3.00;;
3771;SDS011;1901;48.172;12.824;2023-07-29T01:49:34;6.40;;;2.67;;
3771;SDS011;1901;48.172;12.824;2023-07-29T01:52:02;5.77;;;2.70;;
3771;SDS011;1901;48.172;12.824;2023-07-29T01:54:29;3.60;;;3.17;;
3771;SDS011;1901;48.172;12.824;2023-07-29T01:56:56;5.53;;;2.93;;
3771;SDS011;1901;48.172;12.824;2023-07-29T01:59:24;4.07;;;3.00;;
3771;SDS011;1901;48.172;12.824;2023-07-29T02:01:52;6.40;;;2.63;;
3771;SDS011;1901;48.172;12.824;2023-07-29T02:04:19;2.80;;;2.53;;
3771;SDS011;1901;48.172;12.824;2023-07-29T02:06:46;5.80;;;2.77;;
3771;SDS011;1901;48.172;12.824;2023-07-29T02:09:13;5.10;;;2.97;;
3771;SDS011;1901;48.172;12.824;2023-07-29T02:11:40;4.27;;;3.33;;
3771;SDS011;1901;48.172;12.824;2023-07-29T02:14:07;5.37;;;3.20;;
3771;SDS011;1901;48.172;12.824;2023-07-29T02:16:36;3.80;;;2.83;;
3771;SDS011;1901;48.172;12.824;2023-07-29T02:19:04;5.53;;;2.80;;
3771;SDS011;1901;48.172;12.824;2023-07-29T02:21:31;4.03;;;3.60;;
3771;SDS011;1901;48.172;12.824;2023-07-29T02:23:58;4.20;;;2.70;;
3771;SDS011;1901;48.172;12.824;2023-07-29T02:26:25;3.93;;;2.90;;
3771;SDS011;1901;48.172;12.824;2023-07-29T02:28:52;5.00;;;3.97;;
3771;SDS011;1901;48.172;12.824;2023-07-29T02:31:21;3.20;;;2.90;;
3771;SDS011;1901;48.172;12.824;2023-07-29T02:33:50;6.60;;;2.93;;
3771;SDS011;1901;48.172;12.824;2023-07-29T02:36:17;8.43;;;3.37;;
3771;SDS011;1901;48.172;12.824;2023-07-29T02:38:45;4.50;;;3.00;;
3771;SDS011;1901;48.172;12.824;2023-07-29T02:41:12;3.53;;;3.20;;
3771;SDS011;1901;48.172;12.824;2023-07-29T02:43:41;4.40;;;3.13;;
3771;SDS011;1901;48.172;12.824;2023-07-29T02:46:08;4.00;;;3.37;;
3771;SDS011;1901;48.172;12.824;2023-07-29T02:48:35;5.20;;;3.77;;
3771;SDS011;1901;48.172;12.824;2023-07-29T02:51:04;6.20;;;3.40;;
3771;SDS011;1901;48.172;12.824;2023-07-29T02:53:31;4.40;;;4.00;;
3771;SDS011;1901;48.172;12.824;2023-07-29T02:55:58;6.63;;;3.67;;
3771;SDS011;1901;48.172;12.824;2023-07-29T02:58:25;6.90;;;3.27;;
3771;SDS011;1901;48.172;12.824;2023-07-29T03:00:52;3.97;;;2.70;;
3771;SDS011;1901;48.172;12.824;2023-07-29T03:03:19;6.20;;;3.10;;
3771;SDS011;1901;48.172;12.824;2023-07-29T03:05:46;4.73;;;4.00;;
3771;SDS011;1901;48.172;12.824;2023-07-29T03:08:15;3.77;;;3.40;;
3771;SDS011;1901;48.172;12.824;2023-07-29T03:10:42;4.20;;;3.70;;
3771;SDS011;1901;48.172;12.824;2023-07-29T03:13:09;4.90;;;3.70;;
3771;SDS011;1901;48.172;12.824;2023-07-29T03:15:36;5.20;;;3.70;;
3771;SDS011;1901;48.172;12.824;2023-07-29T03:18:03;4.57;;;3.90;;
3771;SDS011;1901;48.172;12.824;2023-07-29T03:20:30;9.87;;;5.30;;
3771;SDS011;1901;48.172;12.824;2023-07-29T03:22:58;3.63;;;3.00;;
3771;SDS011;1901;48.172;12.824;2023-07-29T03:25:26;4.20;;;3.53;;
3771;SDS011;1901;48.172;12.824;2023-07-29T03:27:53;6.70;;;4.13;;
3771;SDS011;1901;48.172;12.824;2023-07-29T03:30:21;6.03;;;3.40;;
3771;SDS011;1901;48.172;12.824;2023-07-29T03:32:48;3.40;;;3.10;;
3771;SDS011;1901;48.172;12.824;2023-07-29T03:35:16;6.23;;;3.80;;
3771;SDS011;1901;48.172;12.824;2023-07-29T03:37:43;6.77;;;3.80;;
3771;SDS011;1901;48.172;12.824;2023-07-29T03:40:10;3.70;;;3.17;;
3771;SDS011;1901;48.172;12.824;2023-07-29T03:42:39;4.93;;;3.33;;
3771;SDS011;1901;48.172;12.824;2023-07-29T03:45:06;3.43;;;3.10;;
3771;SDS011;1901;48.172;12.824;2023-07-29T03:47:35;3.77;;;2.70;;
3771;SDS011;1901;48.172;12.824;2023-07-29T03:50:02;4.47;;;3.20;;
3771;SDS011;1901;48.172;12.824;2023-07-29T03:52:29;3.17;;;2.87;;
3771;SDS011;1901;48.172;12.824;2023-07-29T03:54:56;3.70;;;3.37;;
3771;SDS011;1901;48.172;12.824;2023-07-29T03:57:23;3.00;;;2.60;;
3771;SDS011;1901;48.172;12.824;2023-07-29T03:59:52;4.03;;;3.17;;
3771;SDS011;1901;48.172;12.824;2023-07-29T04:02:19;6.77;;;3.23;;
3771;SDS011;1901;48.172;12.824;2023-07-29T04:04:46;3.83;;;3.43;;
3771;SDS011;1901;48.172;12.824;2023-07-29T04:07:13;5.60;;;3.40;;
3771;SDS011;1901;48.172;12.824;2023-07-29T04:09:41;4.80;;;2.90;;
3771;SDS011;1901;48.172;12.824;2023-07-29T04:12:08;4.87;;;3.10;;
3771;SDS011;1901;48.172;12.824;2023-07-29T04:14:36;3.40;;;3.10;;
3771;SDS011;1901;48.172;12.824;2023-07-29T04:17:04;4.70;;;3.60;;
3771;SDS011;1901;48.172;12.824;2023-07-29T04:19:32;3.07;;;2.60;;
3771;SDS011;1901;48.172;12.824;2023-07-29T04:21:59;3.80;;;2.87;;
3771;SDS011;1901;48.172;12.824;2023-07-29T04:24:26;3.60;;;2.70;;
3771;SDS011;1901;48.172;12.824;2023-07-29T04:26:53;3.43;;;2.30;;
3771;SDS011;1901;48.172;12.824;2023-07-29T04:29:20;2.53;;;2.30;;
3771;SDS011;1901;48.172;12.824;2023-07-29T04:31:47;3.60;;;2.17;;
3771;SDS011;1901;48.172;12.824;2023-07-29T04:34:16;3.40;;;2.80;;
3771;SDS011;1901;48.172;12.824;2023-07-29T04:36:44;2.70;;;2.00;;
3771;SDS011;1901;48.172;12.824;2023-07-29T04:39:11;5.40;;;2.40;;
3771;SDS011;1901;48.172;12.824;2023-07-29T04:41:38;8.93;;;2.27;;
3771;SDS011;1901;48.172;12.824;2023-07-29T04:44:05;2.83;;;2.13;;
3771;SDS011;1901;48.172;12.824;2023-07-29T04:46:32;3.70;;;1.87;;
3771;SDS011;1901;48.172;12.824;2023-07-29T04:48:59;4.50;;;2.40;;
3771;SDS011;1901;48.172;12.824;2023-07-29T04:51:28;1.97;;;1.77;;
3771;SDS011;1901;48.172;12.824;2023-07-29T04:53:56;2.67;;;2.23;;
3771;SDS011;1901;48.172;12.824;2023-07-29T04:56:23;3.60;;;2.30;;
3771;SDS011;1901;48.172;12.824;2023-07-29T04:58:50;3.30;;;2.20;;
3771;SDS011;1901;48.172;12.824;2023-07-29T05:01:18;3.30;;;2.80;;
3771;SDS011;1901;48.172;12.824;2023-07-29T05:03:46;3.43;;;2.40;;
3771;SDS011;1901;48.172;12.824;2023-07-29T05:06:13;8.10;;;2.63;;
3771;SDS011;1901;48.172;12.824;2023-07-29T05:08:41;3.87;;;1.90;;
3771;SDS011;1901;48.172;12.824;2023-07-29T05:11:09;2.83;;;2.57;;
3771;SDS011;1901;48.172;12.824;2023-07-29T05:13:36;3.73;;;1.90;;
3771;SDS011;1901;48.172;12.824;2023-07-29T05:16:04;3.13;;;2.63;;
3771;SDS011;1901;48.172;12.824;2023-07-29T05:18:31;3.40;;;2.30;;
3771;SDS011;1901;48.172;12.824;2023-07-29T05:20:58;2.33;;;1.70;;
3771;SDS011;1901;48.172;12.824;2023-07-29T05:23:25;5.67;;;2.40;;
3771;SDS011;1901;48.172;12.824;2023-07-29T05:25:53;2.33;;;2.10;;
3771;SDS011;1901;48.172;12.824;2023-07-29T05:28:21;3.13;;;1.93;;
3771;SDS011;1901;48.172;12.824;2023-07-29T05:30:48;2.50;;;2.07;;
3771;SDS011;1901;48.172;12.824;2023-07-29T05:33:15;4.50;;;2.13;;
3771;SDS011;1901;48.172;12.824;2023-07-29T05:35:42;2.10;;;1.90;;
3771;SDS011;1901;48.172;12.824;2023-07-29T05:38:09;1.97;;;1.77;;
3771;SDS011;1901;48.172;12.824;2023-07-29T05:40:36;3.20;;;1.67;;
3771;SDS011;1901;48.172;12.824;2023-07-29T05:43:05;2.87;;;1.70;;
3771;SDS011;1901;48.172;12.824;2023-07-29T05:45:32;2.77;;;2.10;;
3771;SDS011;1901;48.172;12.824;2023-07-29T05:47:59;1.77;;;1.67;;
3771;SDS011;1901;48.172;12.824;2023-07-29T05:50:26;2.27;;;2.07;;
3771;SDS011;1901;48.172;12.824;2023-07-29T05:52:53;4.83;;;2.40;;
3771;SDS011;1901;48.172;12.824;2023-07-29T05:55:20;5.50;;;2.23;;
3771;SDS011;1901;48.172;12.824;2023-07-29T05:57:47;2.60;;;1.90;;
3771;SDS011;1901;48.172;12.824;2023-07-29T06:00:16;2.73;;;2.20;;
3771;SDS011;1901;48.172;12.824;2023-07-29T06:02:43;4.30;;;2.67;;
3771;SDS011;1901;48.172;12.824;2023-07-29T06:05:10;3.03;;;2.10;;
3771;SDS011;1901;48.172;12.824;2023-07-29T06:07:37;3.50;;;2.13;;
3771;SDS011;1901;48.172;12.824;2023-07-29T06:10:09;2.00;;;1.80;;
3771;SDS011;1901;48.172;12.824;2023-07-29T06:12:36;2.43;;;2.00;;
3771;SDS011;1901;48.172;12.824;2023-07-29T06:15:04;3.50;;;2.07;;
3771;SDS011;1901;48.172;12.824;2023-07-29T06:17:33;2.07;;;1.87;;
3771;SDS011;1901;48.172;12.824;2023-07-29T06:20:00;2.40;;;2.10;;
3771;SDS011;1901;48.172;12.824;2023-07-29T06:22:28;2.43;;;2.23;;
3771;SDS011;1901;48.172;12.824;2023-07-29T06:24:55;2.93;;;2.37;;
3771;SDS011;1901;48.172;12.824;2023-07-29T06:27:22;2.37;;;2.17;;
3771;SDS011;1901;48.172;12.824;2023-07-29T06:29:50;2.33;;;2.13;;
3771;SDS011;1901;48.172;12.824;2023-07-29T06:32:17;3.17;;;2.20;;
3771;SDS011;1901;48.172;12.824;2023-07-29T06:34:45;3.50;;;1.63;;
3771;SDS011;1901;48.172;12.824;2023-07-29T06:37:13;3.00;;;1.97;;
3771;SDS011;1901;48.172;12.824;2023-07-29T06:39:40;2.50;;;2.20;;
3771;SDS011;1901;48.172;12.824;2023-07-29T06:42:07;2.20;;;2.00;;
3771;SDS011;1901;48.172;12.824;2023-07-29T06:44:34;2.33;;;2.10;;
3771;SDS011;1901;48.172;12.824;2023-07-29T06:47:01;3.10;;;2.00;;
3771;SDS011;1901;48.172;12.824;2023-07-29T06:49:28;2.20;;;1.93;;
3771;SDS011;1901;48.172;12.824;2023-07-29T06:51:57;2.20;;;1.80;;
3771;SDS011;1901;48.172;12.824;2023-07-29T06:54:24;2.73;;;2.47;;
3771;SDS011;1901;48.172;12.824;2023-07-29T06:56:52;2.20;;;2.00;;
3771;SDS011;1901;48.172;12.824;2023-07-29T06:59:19;2.50;;;1.97;;
3771;SDS011;1901;48.172;12.824;2023-07-29T07:01:46;5.23;;;2.00;;
3771;SDS011;1901;48.172;12.824;2023-07-29T07:04:13;3.40;;;2.00;;
3771;SDS011;1901;48.172;12.824;2023-07-29T07:06:40;2.30;;;1.90;;
3771;SDS011;1901;48.172;12.824;2023-07-29T07:09:09;2.13;;;1.87;;
3771;SDS011;1901;48.172;12.824;2023-07-29T07:11:36;5.30;;;2.03;;
3771;SDS011;1901;48.172;12.824;2023-07-29T07:14:03;2.07;;;1.87;;
3771;SDS011;1901;48.172;12.824;2023-07-29T07:16:30;2.20;;;2.00;;
3771;SDS011;1901;48.172;12.824;2023-07-29T07:18:57;3.20;;;2.40;;
3771;SDS011;1901;48.172;12.824;2023-07-29T07:21:24;1.80;;;1.70;;
3771;SDS011;1901;48.172;12.824;2023-07-29T07:23:51;3.10;;;2.20;;
3771;SDS011;1901;48.172;12.824;2023-07-29T07:26:20;2.77;;;2.10;;
3771;SDS011;1901;48.172;12.824;2023-07-29T07:28:47;2.70;;;2.30;;
3771;SDS011;1901;48.172;12.824;2023-07-29T07:31:14;2.60;;;2.10;;
3771;SDS011;1901;48.172;12.824;2023-07-29T07:33:42;2.97;;;1.83;;
3771;SDS011;1901;48.172;12.824;2023-07-29T07:36:09;2.70;;;2.00;;
3771;SDS011;1901;48.172;12.824;2023-07-29T07:38:36;2.30;;;1.90;;
3771;SDS011;1901;48.172;12.824;2023-07-29T07:41:03;2.70;;;2.50;;
3771;SDS011;1901;48.172;12.824;2023-07-29T07:43:32;3.30;;;2.33;;
3771;SDS011;1901;48.172;12.824;2023-07-29T07:45:59;2.63;;;1.97;;
3771;SDS011;1901;48.172;12.824;2023-07-29T07:48:27;1.90;;;1.70;;
3771;SDS011;1901;48.172;12.824;2023-07-29T07:50:54;5.50;;;2.10;;
3771;SDS011;1901;48.172;12.824;2023-07-29T07:53:21;2.80;;;1.90;;
3771;SDS011;1901;48.172;12.824;2023-07-29T07:55:50;4.27;;;2.23;;
3771;SDS011;1901;48.172;12.824;2023-07-29T07:58:17;2.20;;;1.90;;
3771;SDS011;1901;48.172;12.824;2023-07-29T08:00:46;2.20;;;1.93;;
3771;SDS011;1901;48.172;12.824;2023-07-29T08:03:13;2.70;;;2.33;;
3771;SDS011;1901;48.172;12.824;2023-07-29T08:05:40;2.97;;;2.20;;
3771;SDS011;1901;48.172;12.824;2023-07-29T08:08:07;2.40;;;2.10;;
3771;SDS011;1901;48.172;12.824;2023-07-29T08:10:36;3.73;;;3.37;;
3771;SDS011;1901;48.172;12.824;2023-07-29T08:13:03;2.40;;;2.00;;
3771;SDS011;1901;48.172;12.824;2023-07-29T08:15:31;2.40;;;2.03;;
3771;SDS011;1901;48.172;12.824;2023-07-29T08:17:59;2.33;;;2.00;;
3771;SDS011;1901;48.172;12.824;2023-07-29T08:20:26;5.00;;;4.13;;
3771;SDS011;1901;48.172;12.824;2023-07-29T08:22:53;2.70;;;2.03;;
3771;SDS011;1901;48.172;12.824;2023-07-29T08:25:20;3.67;;;2.30;;
3771;SDS011;1901;48.172;12.824;2023-07-29T08:27:48;7.40;;;2.00;;
3771;SDS011;1901;48.172;12.824;2023-07-29T08:30:15;2.57;;;1.87;;
3771;SDS011;1901;48.172;12.824;2023-07-29T08:32:43;4.93;;;2.37;;
3771;SDS011;1901;48.172;12.824;2023-07-29T08:35:11;4.03;;;3.20;;
3771;SDS011;1901;48.172;12.824;2023-07-29T08:37:38;3.97;;;2.40;;
3771;SDS011;1901;48.172;12.824;2023-07-29T08:40:06;2.73;;;2.43;;
3771;SDS011;1901;48.172;12.824;2023-07-29T08:42:33;4.53;;;2.80;;
3771;SDS011;1901;48.172;12.824;2023-07-29T08:45:01;3.67;;;2.70;;
3771;SDS011;1901;48.172;12.824;2023-07-29T08:47:32;4.63;;;2.80;;
3771;SDS011;1901;48.172;12.824;2023-07-29T08:50:00;3.93;;;3.53;;
3771;SDS011;1901;48.172;12.824;2023-07-29T08:52:30;2.73;;;2.30;;
3771;SDS011;1901;48.172;12.824;2023-07-29T08:54:59;4.40;;;2.60;;
3771;SDS011;1901;48.172;12.824;2023-07-29T08:57:27;9.33;;;2.77;;
3771;SDS011;1901;48.172;12.824;2023-07-29T08:59:54;2.73;;;2.03;;
3771;SDS011;1901;48.172;12.824;2023-07-29T09:02:22;6.83;;;4.40;;
3771;SDS011;1901;48.172;12.824;2023-07-29T09:04:49;5.60;;;4.93;;
3771;SDS011;1901;48.172;12.824;2023-07-29T09:07:16;11.03;;;6.07;;
3771;SDS011;1901;48.172;12.824;2023-07-29T09:09:45;8.63;;;5.27;;
3771;SDS011;1901;48.172;12.824;2023-07-29T09:12:12;5.73;;;4.70;;
3771;SDS011;1901;48.172;12.824;2023-07-29T09:14:39;12.10;;;6.43;;
3771;SDS011;1901;48.172;12.824;2023-07-29T09:20:10;10.53;;;5.43;;
3771;SDS011;1901;48.172;12.824;2023-07-29T09:22:37;4.27;;;3.37;;
3771;SDS011;1901;48.172;12.824;2023-07-29T09:25:06;3.77;;;3.33;;
3771;SDS011;1901;48.172;12.824;2023-07-29T09:27:33;7.00;;;3.00;;
3771;SDS011;1901;48.172;12.824;2023-07-29T09:30:05;3.03;;;2.20;;
3771;SDS011;1901;48.172;12.824;2023-07-29T09:32:32;3.30;;;2.63;;
3771;SDS011;1901;48.172;12.824;2023-07-29T09:34:59;4.70;;;3.17;;
3771;SDS011;1901;48.172;12.824;2023-07-29T09:37:26;6.00;;;3.47;;
3771;SDS011;1901;48.172;12.824;2023-07-29T09:39:53;3.03;;;2.73;;
3771;SDS011;1901;48.172;12.824;2023-07-29T09:42:22;5.10;;;3.00;;
3771;SDS011;1901;48.172;12.824;2023-07-29T09:44:49;3.93;;;3.10;;
3771;SDS011;1901;48.172;12.824;2023-07-29T09:47:18;3.10;;;2.73;;
3771;SDS011;1901;48.172;12.824;2023-07-29T09:49:46;3.43;;;3.00;;
3771;SDS011;1901;48.172;12.824;2023-07-29T09:52:14;3.03;;;2.33;;
3771;SDS011;1901;48.172;12.824;2023-07-29T09:54:41;2.60;;;2.40;;
3771;SDS011;1901;48.172;12.824;2023-07-29T09:57:09;3.30;;;2.33;;
3771;SDS011;1901;48.172;12.824;2023-07-29T09:59:38;2.60;;;2.40;;
3771;SDS011;1901;48.172;12.824;2023-07-29T10:02:06;3.10;;;2.40;;
3771;SDS011;1901;48.172;12.824;2023-07-29T10:04:36;12.20;;;2.70;;
3771;SDS011;1901;48.172;12.824;2023-07-29T10:07:04;6.40;;;2.70;;
3771;SDS011;1901;48.172;12.824;2023-07-29T10:09:32;2.83;;;2.53;;
3771;SDS011;1901;48.172;12.824;2023-07-29T10:11:59;2.50;;;2.30;;
3771;SDS011;1901;48.172;12.824;2023-07-29T10:14:27;3.30;;;2.67;;
3771;SDS011;1901;48.172;12.824;2023-07-29T10:16:56;3.63;;;3.10;;
3771;SDS011;1901;48.172;12.824;2023-07-29T10:19:24;3.73;;;2.53;;
3771;SDS011;1901;48.172;12.824;2023-07-29T10:21:52;3.77;;;2.70;;
3771;SDS011;1901;48.172;12.824;2023-07-29T10:24:19;4.07;;;2.43;;
3771;SDS011;1901;48.172;12.824;2023-07-29T10:26:53;3.87;;;3.20;;
3771;SDS011;1901;48.172;12.824;2023-07-29T10:29:22;3.80;;;2.77;;
3771;SDS011;1901;48.172;12.824;2023-07-29T10:31:50;2.70;;;2.20;;
3771;SDS011;1901;48.172;12.824;2023-07-29T10:34:20;6.50;;;2.30;;
3771;SDS011;1901;48.172;12.824;2023-07-29T10:36:48;2.90;;;2.33;;
3771;SDS011;1901;48.172;12.824;2023-07-29T10:39:15;3.50;;;2.80;;
3771;SDS011;1901;48.172;12.824;2023-07-29T10:41:55;2.70;;;2.40;;
3771;SDS011;1901;48.172;12.824;2023-07-29T10:47:10;3.13;;;2.83;;
3771;SDS011;1901;48.172;12.824;2023-07-29T10:49:41;2.57;;;2.30;;
3771;SDS011;1901;48.172;12.824;2023-07-29T10:52:08;3.00;;;2.57;;
3771;SDS011;1901;48.172;12.824;2023-07-29T10:54:41;2.53;;;2.33;;
3771;SDS011;1901;48.172;12.824;2023-07-29T10:57:12;3.00;;;2.57;;
3771;SDS011;1901;48.172;12.824;2023-07-29T11:02:58;2.60;;;2.30;;
3771;SDS011;1901;48.172;12.824;2023-07-29T11:05:41;3.43;;;2.90;;
3771;SDS011;1901;48.172;12.824;2023-07-29T11:08:15;8.27;;;2.97;;
3771;SDS011;1901;48.172;12.824;2023-07-29T11:10:44;4.80;;;2.50;;
3771;SDS011;1901;48.172;12.824;2023-07-29T11:16:29;3.07;;;2.63;;
3771;SDS011;1901;48.172;12.824;2023-07-29T11:21:56;2.83;;;2.63;;
3771;SDS011;1901;48.172;12.824;2023-07-29T11:24:24;2.83;;;2.23;;
3771;SDS011;1901;48.172;12.824;2023-07-29T11:26:51;3.57;;;2.70;;
3771;SDS011;1901;48.172;12.824;2023-07-29T11:29:18;2.87;;;2.67;;
3771;SDS011;1901;48.172;12.824;2023-07-29T11:31:46;3.20;;;2.90;;
3771;SDS011;1901;48.172;12.824;2023-07-29T11:34:14;2.87;;;2.67;;
3771;SDS011;1901;48.172;12.824;2023-07-29T11:36:45;8.13;;;2.83;;
3771;SDS011;1901;48.172;12.824;2023-07-29T11:39:13;3.20;;;2.57;;
3771;SDS011;1901;48.172;12.824;2023-07-29T11:41:42;3.87;;;2.87;;
3771;SDS011;1901;48.172;12.824;2023-07-29T11:44:09;4.20;;;3.37;;
3771;SDS011;1901;48.172;12.824;2023-07-29T11:46:36;3.90;;;2.73;;
3771;SDS011;1901;48.172;12.824;2023-07-29T11:49:03;3.43;;;2.53;;
3771;SDS011;1901;48.172;12.824;2023-07-29T11:51:31;3.40;;;3.10;;
3771;SDS011;1901;48.172;12.824;2023-07-29T11:53:59;2.73;;;2.53;;
3771;SDS011;1901;48.172;12.824;2023-07-29T11:56:28;3.00;;;2.10;;
3771;SDS011;1901;48.172;12.824;2023-07-29T11:58:56;2.80;;;2.57;;
3771;SDS011;1901;48.172;12.824;2023-07-29T12:01:23;2.63;;;2.43;;
3771;SDS011;1901;48.172;12.824;2023-07-29T12:06:53;3.50;;;2.60;;
3771;SDS011;1901;48.172;12.824;2023-07-29T12:09:21;2.77;;;2.47;;
3771;SDS011;1901;48.172;12.824;2023-07-29T12:11:50;3.80;;;2.80;;
3771;SDS011;1901;48.172;12.824;2023-07-29T12:14:18;5.47;;;2.20;;
3771;SDS011;1901;48.172;12.824;2023-07-29T12:16:47;7.50;;;1.90;;
3771;SDS011;1901;48.172;12.824;2023-07-29T12:19:15;8.93;;;2.40;;
3771;SDS011;1901;48.172;12.824;2023-07-29T12:21:43;6.40;;;3.17;;
3771;SDS011;1901;48.172;12.824;2023-07-29T12:24:11;5.93;;;2.10;;
3771;SDS011;1901;48.172;12.824;2023-07-29T12:26:39;3.80;;;2.07;;
3771;SDS011;1901;48.172;12.824;2023-07-29T12:29:14;2.70;;;1.90;;
3771;SDS011;1901;48.172;12.824;2023-07-29T12:31:42;3.57;;;2.47;;
3771;SDS011;1901;48.172;12.824;2023-07-29T12:34:09;3.40;;;2.10;;
3771;SDS011;1901;48.172;12.824;2023-07-29T12:36:42;2.87;;;2.00;;
3771;SDS011;1901;48.172;12.824;2023-07-29T12:39:17;3.27;;;2.10;;
3771;SDS011;1901;48.172;12.824;2023-07-29T12:41:44;3.77;;;2.30;;
3771;SDS011;1901;48.172;12.824;2023-07-29T12:44:11;3.53;;;2.20;;
3771;SDS011;1901;48.172;12.824;2023-07-29T12:46:39;3.33;;;2.90;;
3771;SDS011;1901;48.172;12.824;2023-07-29T12:49:07;2.63;;;2.27;;
3771;SDS011;1901;48.172;12.824;2023-07-29T12:51:34;3.33;;;2.40;;
3771;SDS011;1901;48.172;12.824;2023-07-29T12:54:02;6.90;;;2.60;;
3771;SDS011;1901;48.172;12.824;2023-07-29T12:56:29;2.30;;;2.00;;
3771;SDS011;1901;48.172;12.824;2023-07-29T12:58:57;3.50;;;2.53;;
3771;SDS011;1901;48.172;12.824;2023-07-29T13:01:24;2.23;;;2.03;;
3771;SDS011;1901;48.172;12.824;2023-07-29T13:03:52;3.47;;;2.63;;
3771;SDS011;1901;48.172;12.824;2023-07-29T13:06:20;6.13;;;2.40;;
3771;SDS011;1901;48.172;12.824;2023-07-29T13:08:47;2.10;;;1.90;;
3771;SDS011;1901;48.172;12.824;2023-07-29T13:11:15;3.63;;;2.17;;
3771;SDS011;1901;48.172;12.824;2023-07-29T13:13:42;2.60;;;2.20;;
3771;SDS011;1901;48.172;12.824;2023-07-29T13:16:10;3.40;;;2.67;;
3771;SDS011;1901;48.172;12.824;2023-07-29T13:18:37;2.27;;;1.83;;
3771;SDS011;1901;48.172;12.824;2023-07-29T13:21:06;2.87;;;2.20;;
3771;SDS011;1901;48.172;12.824;2023-07-29T13:23:33;2.97;;;2.07;;
3771;SDS011;1901;48.172;12.824;2023-07-29T13:26:00;4.10;;;2.30;;
3771;SDS011;1901;48.172;12.824;2023-07-29T13:28:27;2.70;;;2.10;;
3771;SDS011;1901;48.172;12.824;2023-07-29T13:30:55;2.90;;;2.40;;
3771;SDS011;1901;48.172;12.824;2023-07-29T13:33:22;2.27;;;2.07;;
3771;SDS011;1901;48.172;12.824;2023-07-29T13:35:49;2.73;;;2.13;;
3771;SDS011;1901;48.172;12.824;2023-07-29T13:38:17;4.47;;;2.17;;
3771;SDS011;1901;48.172;12.824;2023-07-29T13:40:45;2.43;;;2.03;;
3771;SDS011;1901;48.172;12.824;2023-07-29T13:43:15;4.07;;;2.13;;
3771;SDS011;1901;48.172;12.824;2023-07-29T13:45:43;2.80;;;2.50;;
3771;SDS011;1901;48.172;12.824;2023-07-29T13:48:10;6.50;;;2.70;;
3771;SDS011;1901;48.172;12.824;2023-07-29T13:50:37;5.50;;;3.10;;
3771;SDS011;1901;48.172;12.824;2023-07-29T13:53:04;3.30;;;2.40;;
3771;SDS011;1901;48.172;12.824;2023-07-29T13:55:33;2.63;;;2.37;;
3771;SDS011;1901;48.172;12.824;2023-07-29T13:58:00;2.40;;;2.07;;
3771;SDS011;1901;48.172;12.824;2023-07-29T14:00:27;2.50;;;1.90;;
3771;SDS011;1901;48.172;12.824;2023-07-29T14:02:54;5.67;;;4.37;;
3771;SDS011;1901;48.172;12.824;2023-07-29T14:05:21;5.00;;;3.67;;
3771;SDS011;1901;48.172;12.824;2023-07-29T14:07:49;4.17;;;2.63;;
3771;SDS011;1901;48.172;12.824;2023-07-29T14:10:16;3.47;;;2.73;;
3771;SDS011;1901;48.172;12.824;2023-07-29T14:12:44;5.70;;;2.00;;
3771;SDS011;1901;48.172;12.824;2023-07-29T14:15:11;3.70;;;3.10;;
3771;SDS011;1901;48.172;12.824;2023-07-29T14:17:38;6.27;;;2.63;;
3771;SDS011;1901;48.172;12.824;2023-07-29T14:20:06;2.87;;;2.10;;
3771;SDS011;1901;48.172;12.824;2023-07-29T14:22:33;3.47;;;2.93;;
3771;SDS011;1901;48.172;12.824;2023-07-29T14:25:00;4.80;;;2.97;;
3771;SDS011;1901;48.172;12.824;2023-07-29T14:27:28;4.77;;;2.63;;
3771;SDS011;1901;48.172;12.824;2023-07-29T14:29:56;7.60;;;2.53;;
3771;SDS011;1901;48.172;12.824;2023-07-29T14:32:23;7.87;;;4.17;;
3771;SDS011;1901;48.172;12.824;2023-07-29T14:34:50;4.27;;;3.40;;
3771;SDS011;1901;48.172;12.824;2023-07-29T14:37:18;4.30;;;3.23;;
3771;SDS011;1901;48.172;12.824;2023-07-29T14:39:45;4.13;;;3.00;;
3771;SDS011;1901;48.172;12.824;2023-07-29T14:42:12;4.47;;;3.60;;
3771;SDS011;1901;48.172;12.824;2023-07-29T14:44:40;5.97;;;3.37;;
3771;SDS011;1901;48.172;12.824;2023-07-29T14:47:08;9.27;;;4.53;;
3771;SDS011;1901;48.172;12.824;2023-07-29T14:49:35;5.10;;;2.93;;
3771;SDS011;1901;48.172;12.824;2023-07-29T14:52:03;4.57;;;2.83;;
3771;SDS011;1901;48.172;12.824;2023-07-29T14:54:30;3.83;;;2.27;;
3771;SDS011;1901;48.172;12.824;2023-07-29T14:56:57;3.10;;;2.80;;
3771;SDS011;1901;48.172;12.824;2023-07-29T14:59:24;3.37;;;3.00;;
3771;SDS011;1901;48.172;12.824;2023-07-29T15:01:52;4.60;;;3.40;;
3771;SDS011;1901;48.172;12.824;2023-07-29T15:04:20;3.13;;;2.80;;
3771;SDS011;1901;48.172;12.824;2023-07-29T15:06:47;3.13;;;2.50;;
3771;SDS011;1901;48.172;12.824;2023-07-29T15:09:14;3.73;;;3.30;;
3771;SDS011;1901;48.172;12.824;2023-07-29T15:11:42;4.57;;;3.60;;
3771;SDS011;1901;48.172;12.824;2023-07-29T15:14:09;3.50;;;2.87;;
3771;SDS011;1901;48.172;12.824;2023-07-29T15:16:36;6.07;;;3.50;;
3771;SDS011;1901;48.172;12.824;2023-07-29T15:19:04;4.47;;;3.50;;
3771;SDS011;1901;48.172;12.824;2023-07-29T15:21:32;4.20;;;3.60;;